sensor_id;sensor_type;location;lat;lon;timestamp;P1;durP1;ratioP1;P2;durP2;ratioP2
33864;SDS011;20159;51.072;13.526;2022-10-16T00:00:34;2.88;;;0.77;;
33864;SDS011;20159;51.072;13.526;2022-10-16T00:03:02;0.95;;;0.70;;
33864;SDS011;20159;51.072;13.526;2022-10-16T00:05:28;0.95;;;0.60;;
33864;SDS011;20159;51.072;13.526;2022-10-16T00:07:53;1.02;;;0.80;;
33864;SDS011;20159;51.072;13.526;2022-10-16T00:10:19;0.88;;;0.63;;
33864;SDS011;20159;51.072;13.526;2022-10-16T00:12:45;0.68;;;0.55;;
33864;SDS011;20159;51.072;13.526;2022-10-16T00:15:10;1.05;;;0.65;;
33864;SDS011;20159;51.072;13.526;2022-10-16T00:17:36;0.85;;;0.60;;
33864;SDS011;20159;51.072;13.526;2022-10-16T00:20:02;0.85;;;0.65;;
33864;SDS011;20159;51.072;13.526;2022-10-16T00:22:27;1.48;;;0.73;;
33864;SDS011;20159;51.072;13.526;2022-10-16T00:24:53;0.80;;;0.60;;
33864;SDS011;20159;51.072;13.526;2022-10-16T00:27:19;1.58;;;0.60;;
33864;SDS011;20159;51.072;13.526;2022-10-16T00:29:44;1.20;;;0.60;;
33864;SDS011;20159;51.072;13.526;2022-10-16T00:32:10;0.90;;;0.60;;
33864;SDS011;20159;51.072;13.526;2022-10-16T00:34:35;0.90;;;0.52;;
33864;SDS011;20159;51.072;13.526;2022-10-16T00:37:01;0.60;;;0.50;;
33864;SDS011;20159;51.072;13.526;2022-10-16T00:39:28;1.35;;;0.75;;
33864;SDS011;20159;51.072;13.526;2022-10-16T00:41:53;0.80;;;0.60;;
33864;SDS011;20159;51.072;13.526;2022-10-16T00:47:13;0.70;;;0.40;;
33864;SDS011;20159;51.072;13.526;2022-10-16T00:49:43;1.83;;;0.60;;
33864;SDS011;20159;51.072;13.526;2022-10-16T00:52:10;1.00;;;0.60;;
33864;SDS011;20159;51.072;13.526;2022-10-16T00:54:36;1.05;;;0.55;;
33864;SDS011;20159;51.072;13.526;2022-10-16T00:57:03;1.48;;;0.73;;
33864;SDS011;20159;51.072;13.526;2022-10-16T00:59:32;1.05;;;0.43;;
33864;SDS011;20159;51.072;13.526;2022-10-16T01:01:59;0.80;;;0.65;;
33864;SDS011;20159;51.072;13.526;2022-10-16T01:04:25;3.13;;;0.70;;
33864;SDS011;20159;51.072;13.526;2022-10-16T01:12:38;0.70;;;0.60;;
33864;SDS011;20159;51.072;13.526;2022-10-16T01:17:39;0.70;;;0.57;;
33864;SDS011;20159;51.072;13.526;2022-10-16T01:22:50;1.00;;;0.70;;
33864;SDS011;20159;51.072;13.526;2022-10-16T01:28:12;1.58;;;0.80;;
33864;SDS011;20159;51.072;13.526;2022-10-16T01:30:39;2.28;;;0.90;;
33864;SDS011;20159;51.072;13.526;2022-10-16T01:33:12;0.90;;;0.70;;
33864;SDS011;20159;51.072;13.526;2022-10-16T01:36:26;1.23;;;0.63;;
33864;SDS011;20159;51.072;13.526;2022-10-16T01:38:38;1.48;;;0.75;;
33864;SDS011;20159;51.072;13.526;2022-10-16T01:41:09;0.85;;;0.60;;
33864;SDS011;20159;51.072;13.526;2022-10-16T01:43:41;0.65;;;0.50;;
33864;SDS011;20159;51.072;13.526;2022-10-16T01:46:10;1.15;;;0.47;;
33864;SDS011;20159;51.072;13.526;2022-10-16T01:48:41;0.95;;;0.63;;
33864;SDS011;20159;51.072;13.526;2022-10-16T01:51:09;1.00;;;0.60;;
33864;SDS011;20159;51.072;13.526;2022-10-16T01:53:37;3.53;;;0.70;;
33864;SDS011;20159;51.072;13.526;2022-10-16T01:56:05;0.75;;;0.40;;
33864;SDS011;20159;51.072;13.526;2022-10-16T01:58:35;0.88;;;0.50;;
33864;SDS011;20159;51.072;13.526;2022-10-16T02:01:06;0.50;;;0.40;;
33864;SDS011;20159;51.072;13.526;2022-10-16T02:03:34;0.98;;;0.60;;
33864;SDS011;20159;51.072;13.526;2022-10-16T02:06:04;1.45;;;0.50;;
33864;SDS011;20159;51.072;13.526;2022-10-16T02:08:30;0.70;;;0.50;;
33864;SDS011;20159;51.072;13.526;2022-10-16T02:10:56;0.50;;;0.43;;
33864;SDS011;20159;51.072;13.526;2022-10-16T02:13:24;1.17;;;0.50;;
33864;SDS011;20159;51.072;13.526;2022-10-16T02:16:06;0.90;;;0.50;;
33864;SDS011;20159;51.072;13.526;2022-10-16T02:18:32;0.38;;;0.32;;
33864;SDS011;20159;51.072;13.526;2022-10-16T02:20:59;1.05;;;0.47;;
33864;SDS011;20159;51.072;13.526;2022-10-16T02:23:37;0.60;;;0.45;;
33864;SDS011;20159;51.072;13.526;2022-10-16T02:26:15;0.52;;;0.30;;
33864;SDS011;20159;51.072;13.526;2022-10-16T02:28:52;1.05;;;0.47;;
33864;SDS011;20159;51.072;13.526;2022-10-16T02:31:25;0.90;;;0.57;;
33864;SDS011;20159;51.072;13.526;2022-10-16T02:33:53;0.50;;;0.40;;
33864;SDS011;20159;51.072;13.526;2022-10-16T02:36:23;1.20;;;0.60;;
33864;SDS011;20159;51.072;13.526;2022-10-16T02:38:50;0.77;;;0.43;;
33864;SDS011;20159;51.072;13.526;2022-10-16T02:41:16;0.80;;;0.50;;
33864;SDS011;20159;51.072;13.526;2022-10-16T02:43:43;0.68;;;0.40;;
33864;SDS011;20159;51.072;13.526;2022-10-16T02:46:08;0.93;;;0.50;;
33864;SDS011;20159;51.072;13.526;2022-10-16T02:48:34;0.60;;;0.50;;
33864;SDS011;20159;51.072;13.526;2022-10-16T02:51:00;1.60;;;0.50;;
33864;SDS011;20159;51.072;13.526;2022-10-16T02:53:26;1.23;;;0.50;;
33864;SDS011;20159;51.072;13.526;2022-10-16T02:55:51;1.83;;;0.60;;
33864;SDS011;20159;51.072;13.526;2022-10-16T02:58:17;0.90;;;0.52;;
33864;SDS011;20159;51.072;13.526;2022-10-16T03:00:42;0.60;;;0.47;;
33864;SDS011;20159;51.072;13.526;2022-10-16T03:03:08;0.40;;;0.30;;
33864;SDS011;20159;51.072;13.526;2022-10-16T03:05:33;1.30;;;0.70;;
33864;SDS011;20159;51.072;13.526;2022-10-16T03:07:59;0.60;;;0.40;;
33864;SDS011;20159;51.072;13.526;2022-10-16T03:10:25;0.80;;;0.50;;
33864;SDS011;20159;51.072;13.526;2022-10-16T03:12:52;0.52;;;0.30;;
33864;SDS011;20159;51.072;13.526;2022-10-16T03:15:17;3.17;;;0.60;;
33864;SDS011;20159;51.072;13.526;2022-10-16T03:17:43;0.40;;;0.32;;
33864;SDS011;20159;51.072;13.526;2022-10-16T03:20:08;1.27;;;0.63;;
33864;SDS011;20159;51.072;13.526;2022-10-16T03:22:34;0.60;;;0.60;;
33864;SDS011;20159;51.072;13.526;2022-10-16T03:25:00;1.10;;;0.70;;
33864;SDS011;20159;51.072;13.526;2022-10-16T03:27:25;0.52;;;0.45;;
33864;SDS011;20159;51.072;13.526;2022-10-16T03:29:51;0.75;;;0.50;;
33864;SDS011;20159;51.072;13.526;2022-10-16T03:32:16;1.65;;;0.60;;
33864;SDS011;20159;51.072;13.526;2022-10-16T03:34:43;0.70;;;0.60;;
33864;SDS011;20159;51.072;13.526;2022-10-16T03:37:08;2.00;;;0.60;;
33864;SDS011;20159;51.072;13.526;2022-10-16T03:39:34;1.45;;;0.68;;
33864;SDS011;20159;51.072;13.526;2022-10-16T03:42:00;1.58;;;0.60;;
33864;SDS011;20159;51.072;13.526;2022-10-16T03:44:25;0.90;;;0.60;;
33864;SDS011;20159;51.072;13.526;2022-10-16T03:46:51;0.63;;;0.43;;
33864;SDS011;20159;51.072;13.526;2022-10-16T03:49:16;0.60;;;0.40;;
33864;SDS011;20159;51.072;13.526;2022-10-16T03:51:42;0.93;;;0.50;;
33864;SDS011;20159;51.072;13.526;2022-10-16T03:54:07;1.02;;;0.55;;
33864;SDS011;20159;51.072;13.526;2022-10-16T03:56:35;0.80;;;0.52;;
33864;SDS011;20159;51.072;13.526;2022-10-16T03:59:00;0.60;;;0.40;;
33864;SDS011;20159;51.072;13.526;2022-10-16T04:01:26;1.25;;;0.50;;
33864;SDS011;20159;51.072;13.526;2022-10-16T04:03:51;1.92;;;0.57;;
33864;SDS011;20159;51.072;13.526;2022-10-16T04:06:17;0.70;;;0.50;;
33864;SDS011;20159;51.072;13.526;2022-10-16T04:08:43;4.15;;;0.70;;
33864;SDS011;20159;51.072;13.526;2022-10-16T04:11:09;0.90;;;0.60;;
33864;SDS011;20159;51.072;13.526;2022-10-16T04:13:34;1.23;;;0.70;;
33864;SDS011;20159;51.072;13.526;2022-10-16T04:16:00;0.70;;;0.50;;
33864;SDS011;20159;51.072;13.526;2022-10-16T04:18:25;2.83;;;0.70;;
33864;SDS011;20159;51.072;13.526;2022-10-16T04:20:52;1.05;;;0.60;;
33864;SDS011;20159;51.072;13.526;2022-10-16T04:23:18;0.88;;;0.57;;
33864;SDS011;20159;51.072;13.526;2022-10-16T04:25:44;0.82;;;0.63;;
33864;SDS011;20159;51.072;13.526;2022-10-16T04:28:09;1.02;;;0.70;;
33864;SDS011;20159;51.072;13.526;2022-10-16T04:30:37;1.25;;;0.60;;
33864;SDS011;20159;51.072;13.526;2022-10-16T04:33:03;1.15;;;0.60;;
33864;SDS011;20159;51.072;13.526;2022-10-16T04:35:28;1.30;;;0.60;;
33864;SDS011;20159;51.072;13.526;2022-10-16T04:37:54;1.50;;;0.60;;
33864;SDS011;20159;51.072;13.526;2022-10-16T04:40:22;1.00;;;0.70;;
33864;SDS011;20159;51.072;13.526;2022-10-16T04:42:48;0.93;;;0.68;;
33864;SDS011;20159;51.072;13.526;2022-10-16T04:45:13;0.95;;;0.60;;
33864;SDS011;20159;51.072;13.526;2022-10-16T04:47:39;0.82;;;0.73;;
33864;SDS011;20159;51.072;13.526;2022-10-16T04:50:05;0.93;;;0.60;;
33864;SDS011;20159;51.072;13.526;2022-10-16T04:52:31;1.02;;;0.75;;
33864;SDS011;20159;51.072;13.526;2022-10-16T04:54:57;1.88;;;0.70;;
33864;SDS011;20159;51.072;13.526;2022-10-16T04:57:26;0.65;;;0.60;;
33864;SDS011;20159;51.072;13.526;2022-10-16T04:59:52;2.53;;;0.80;;
33864;SDS011;20159;51.072;13.526;2022-10-16T05:02:17;1.23;;;0.88;;
33864;SDS011;20159;51.072;13.526;2022-10-16T05:04:43;2.47;;;0.80;;
33864;SDS011;20159;51.072;13.526;2022-10-16T05:07:08;0.73;;;0.73;;
33864;SDS011;20159;51.072;13.526;2022-10-16T05:09:34;1.17;;;0.50;;
33864;SDS011;20159;51.072;13.526;2022-10-16T05:11:59;1.65;;;0.80;;
33864;SDS011;20159;51.072;13.526;2022-10-16T05:14:25;0.80;;;0.60;;
33864;SDS011;20159;51.072;13.526;2022-10-16T05:16:50;0.88;;;0.60;;
33864;SDS011;20159;51.072;13.526;2022-10-16T05:19:16;1.77;;;0.85;;
33864;SDS011;20159;51.072;13.526;2022-10-16T05:21:42;1.13;;;0.70;;
33864;SDS011;20159;51.072;13.526;2022-10-16T05:24:08;1.48;;;0.70;;
33864;SDS011;20159;51.072;13.526;2022-10-16T05:26:34;1.42;;;0.70;;
33864;SDS011;20159;51.072;13.526;2022-10-16T05:28:59;0.80;;;0.70;;
33864;SDS011;20159;51.072;13.526;2022-10-16T05:31:25;0.90;;;0.60;;
33864;SDS011;20159;51.072;13.526;2022-10-16T05:33:51;1.33;;;0.68;;
33864;SDS011;20159;51.072;13.526;2022-10-16T05:36:17;0.93;;;0.70;;
33864;SDS011;20159;51.072;13.526;2022-10-16T05:38:43;2.45;;;0.80;;
33864;SDS011;20159;51.072;13.526;2022-10-16T05:41:09;2.15;;;0.90;;
33864;SDS011;20159;51.072;13.526;2022-10-16T05:43:34;1.15;;;0.70;;
33864;SDS011;20159;51.072;13.526;2022-10-16T05:46:01;2.35;;;0.80;;
33864;SDS011;20159;51.072;13.526;2022-10-16T05:48:31;1.42;;;0.73;;
33864;SDS011;20159;51.072;13.526;2022-10-16T05:51:00;2.08;;;0.88;;
33864;SDS011;20159;51.072;13.526;2022-10-16T05:53:28;1.63;;;0.77;;
33864;SDS011;20159;51.072;13.526;2022-10-16T05:55:55;1.17;;;0.70;;
33864;SDS011;20159;51.072;13.526;2022-10-16T05:58:21;0.82;;;0.70;;
33864;SDS011;20159;51.072;13.526;2022-10-16T06:00:54;0.95;;;0.70;;
33864;SDS011;20159;51.072;13.526;2022-10-16T06:03:24;2.35;;;0.77;;
33864;SDS011;20159;51.072;13.526;2022-10-16T06:05:50;2.22;;;0.70;;
33864;SDS011;20159;51.072;13.526;2022-10-16T06:08:16;0.73;;;0.60;;
33864;SDS011;20159;51.072;13.526;2022-10-16T06:10:42;1.23;;;0.70;;
33864;SDS011;20159;51.072;13.526;2022-10-16T06:13:08;0.95;;;0.60;;
33864;SDS011;20159;51.072;13.526;2022-10-16T06:15:34;1.15;;;0.60;;
33864;SDS011;20159;51.072;13.526;2022-10-16T06:18:00;1.27;;;0.70;;
33864;SDS011;20159;51.072;13.526;2022-10-16T06:20:26;1.73;;;0.80;;
33864;SDS011;20159;51.072;13.526;2022-10-16T06:22:51;1.15;;;0.68;;
33864;SDS011;20159;51.072;13.526;2022-10-16T06:25:17;1.38;;;0.90;;
33864;SDS011;20159;51.072;13.526;2022-10-16T06:27:42;1.30;;;0.68;;
33864;SDS011;20159;51.072;13.526;2022-10-16T06:30:08;0.90;;;0.70;;
33864;SDS011;20159;51.072;13.526;2022-10-16T06:32:34;0.82;;;0.50;;
33864;SDS011;20159;51.072;13.526;2022-10-16T06:34:59;1.10;;;0.70;;
33864;SDS011;20159;51.072;13.526;2022-10-16T06:37:26;1.27;;;0.50;;
33864;SDS011;20159;51.072;13.526;2022-10-16T06:39:51;0.93;;;0.60;;
33864;SDS011;20159;51.072;13.526;2022-10-16T06:42:17;1.50;;;0.60;;
33864;SDS011;20159;51.072;13.526;2022-10-16T06:44:43;0.70;;;0.52;;
33864;SDS011;20159;51.072;13.526;2022-10-16T06:47:09;0.88;;;0.63;;
33864;SDS011;20159;51.072;13.526;2022-10-16T06:49:35;1.60;;;0.50;;
33864;SDS011;20159;51.072;13.526;2022-10-16T06:52:00;0.80;;;0.50;;
33864;SDS011;20159;51.072;13.526;2022-10-16T06:54:26;0.82;;;0.55;;
33864;SDS011;20159;51.072;13.526;2022-10-16T06:56:52;0.60;;;0.40;;
33864;SDS011;20159;51.072;13.526;2022-10-16T06:59:19;2.40;;;0.47;;
33864;SDS011;20159;51.072;13.526;2022-10-16T07:01:45;0.70;;;0.40;;
33864;SDS011;20159;51.072;13.526;2022-10-16T07:04:11;0.38;;;0.30;;
33864;SDS011;20159;51.072;13.526;2022-10-16T07:06:36;1.10;;;0.50;;
33864;SDS011;20159;51.072;13.526;2022-10-16T07:09:03;2.72;;;0.50;;
33864;SDS011;20159;51.072;13.526;2022-10-16T07:11:31;0.98;;;0.40;;
33864;SDS011;20159;51.072;13.526;2022-10-16T07:13:57;0.52;;;0.30;;
33864;SDS011;20159;51.072;13.526;2022-10-16T07:16:24;0.35;;;0.30;;
33864;SDS011;20159;51.072;13.526;2022-10-16T07:18:51;1.52;;;0.50;;
33864;SDS011;20159;51.072;13.526;2022-10-16T07:21:23;1.23;;;0.50;;
33864;SDS011;20159;51.072;13.526;2022-10-16T07:23:54;0.43;;;0.30;;
33864;SDS011;20159;51.072;13.526;2022-10-16T07:26:21;0.98;;;0.40;;
33864;SDS011;20159;51.072;13.526;2022-10-16T07:28:48;0.47;;;0.30;;
33864;SDS011;20159;51.072;13.526;2022-10-16T07:31:14;0.50;;;0.40;;
33864;SDS011;20159;51.072;13.526;2022-10-16T07:33:41;0.82;;;0.40;;
33864;SDS011;20159;51.072;13.526;2022-10-16T07:36:09;0.60;;;0.40;;
33864;SDS011;20159;51.072;13.526;2022-10-16T07:38:35;0.38;;;0.30;;
33864;SDS011;20159;51.072;13.526;2022-10-16T07:41:02;1.00;;;0.40;;
33864;SDS011;20159;51.072;13.526;2022-10-16T07:43:28;0.55;;;0.30;;
33864;SDS011;20159;51.072;13.526;2022-10-16T07:45:54;1.23;;;0.40;;
33864;SDS011;20159;51.072;13.526;2022-10-16T07:48:21;0.68;;;0.30;;
33864;SDS011;20159;51.072;13.526;2022-10-16T07:50:47;0.50;;;0.40;;
33864;SDS011;20159;51.072;13.526;2022-10-16T07:53:13;0.20;;;0.20;;
33864;SDS011;20159;51.072;13.526;2022-10-16T07:55:39;0.68;;;0.20;;
33864;SDS011;20159;51.072;13.526;2022-10-16T07:58:05;0.20;;;0.20;;
33864;SDS011;20159;51.072;13.526;2022-10-16T08:00:30;0.50;;;0.20;;
33864;SDS011;20159;51.072;13.526;2022-10-16T08:02:57;0.60;;;0.30;;
33864;SDS011;20159;51.072;13.526;2022-10-16T08:05:26;0.70;;;0.40;;
33864;SDS011;20159;51.072;13.526;2022-10-16T08:07:53;0.47;;;0.28;;
33864;SDS011;20159;51.072;13.526;2022-10-16T08:10:19;1.25;;;0.28;;
33864;SDS011;20159;51.072;13.526;2022-10-16T08:12:46;0.95;;;0.38;;
33864;SDS011;20159;51.072;13.526;2022-10-16T08:15:12;0.60;;;0.25;;
33864;SDS011;20159;51.072;13.526;2022-10-16T08:17:38;0.47;;;0.30;;
33864;SDS011;20159;51.072;13.526;2022-10-16T08:20:04;0.32;;;0.30;;
33864;SDS011;20159;51.072;13.526;2022-10-16T08:22:30;0.20;;;0.20;;
33864;SDS011;20159;51.072;13.526;2022-10-16T08:24:56;0.30;;;0.20;;
33864;SDS011;20159;51.072;13.526;2022-10-16T08:27:21;0.95;;;0.25;;
33864;SDS011;20159;51.072;13.526;2022-10-16T08:29:48;0.57;;;0.13;;
33864;SDS011;20159;51.072;13.526;2022-10-16T08:32:14;1.08;;;0.28;;
33864;SDS011;20159;51.072;13.526;2022-10-16T08:34:40;0.28;;;0.20;;
33864;SDS011;20159;51.072;13.526;2022-10-16T08:37:05;0.85;;;0.25;;
33864;SDS011;20159;51.072;13.526;2022-10-16T08:39:32;0.30;;;0.15;;
33864;SDS011;20159;51.072;13.526;2022-10-16T08:44:41;0.57;;;0.20;;
33864;SDS011;20159;51.072;13.526;2022-10-16T08:50:13;1.20;;;0.40;;
33864;SDS011;20159;51.072;13.526;2022-10-16T08:52:46;0.60;;;0.30;;
33864;SDS011;20159;51.072;13.526;2022-10-16T08:55:19;0.52;;;0.20;;
33864;SDS011;20159;51.072;13.526;2022-10-16T08:57:57;0.20;;;0.17;;
33864;SDS011;20159;51.072;13.526;2022-10-16T09:00:23;1.05;;;0.38;;
33864;SDS011;20159;51.072;13.526;2022-10-16T09:11:45;0.45;;;0.25;;
33864;SDS011;20159;51.072;13.526;2022-10-16T09:22:47;0.30;;;0.10;;
33864;SDS011;20159;51.072;13.526;2022-10-16T09:25:14;0.40;;;0.25;;
33864;SDS011;20159;51.072;13.526;2022-10-16T09:27:42;0.55;;;0.20;;
33864;SDS011;20159;51.072;13.526;2022-10-16T09:30:12;0.10;;;0.10;;
33864;SDS011;20159;51.072;13.526;2022-10-16T09:32:39;0.57;;;0.20;;
33864;SDS011;20159;51.072;13.526;2022-10-16T09:35:09;0.38;;;0.20;;
33864;SDS011;20159;51.072;13.526;2022-10-16T09:37:38;0.70;;;0.30;;
33864;SDS011;20159;51.072;13.526;2022-10-16T09:40:06;1.45;;;0.25;;
33864;SDS011;20159;51.072;13.526;2022-10-16T09:42:32;0.98;;;0.40;;
33864;SDS011;20159;51.072;13.526;2022-10-16T09:45:01;0.50;;;0.35;;
33864;SDS011;20159;51.072;13.526;2022-10-16T09:47:28;0.35;;;0.30;;
33864;SDS011;20159;51.072;13.526;2022-10-16T09:52:23;1.00;;;0.30;;
33864;SDS011;20159;51.072;13.526;2022-10-16T09:54:53;1.48;;;0.50;;
33864;SDS011;20159;51.072;13.526;2022-10-16T09:57:57;1.45;;;0.30;;
33864;SDS011;20159;51.072;13.526;2022-10-16T10:00:23;0.43;;;0.30;;
33864;SDS011;20159;51.072;13.526;2022-10-16T10:02:49;0.85;;;0.43;;
33864;SDS011;20159;51.072;13.526;2022-10-16T10:05:26;0.93;;;0.30;;
33864;SDS011;20159;51.072;13.526;2022-10-16T10:07:59;0.73;;;0.20;;
33864;SDS011;20159;51.072;13.526;2022-10-16T10:10:32;0.30;;;0.20;;
33864;SDS011;20159;51.072;13.526;2022-10-16T10:13:01;0.35;;;0.20;;
33864;SDS011;20159;51.072;13.526;2022-10-16T10:15:27;0.57;;;0.20;;
33864;SDS011;20159;51.072;13.526;2022-10-16T10:17:59;1.00;;;0.40;;
33864;SDS011;20159;51.072;13.526;2022-10-16T10:22:59;0.50;;;0.35;;
33864;SDS011;20159;51.072;13.526;2022-10-16T10:31:34;2.25;;;0.50;;
33864;SDS011;20159;51.072;13.526;2022-10-16T10:37:24;0.40;;;0.25;;
33864;SDS011;20159;51.072;13.526;2022-10-16T10:45:47;2.83;;;0.30;;
33864;SDS011;20159;51.072;13.526;2022-10-16T10:50:58;0.82;;;0.30;;
33864;SDS011;20159;51.072;13.526;2022-10-16T10:53:36;2.15;;;0.40;;
33864;SDS011;20159;51.072;13.526;2022-10-16T10:56:08;0.47;;;0.20;;
33864;SDS011;20159;51.072;13.526;2022-10-16T11:01:25;1.52;;;0.40;;
33864;SDS011;20159;51.072;13.526;2022-10-16T11:04:11;0.60;;;0.30;;
33864;SDS011;20159;51.072;13.526;2022-10-16T11:06:52;1.27;;;0.22;;
33864;SDS011;20159;51.072;13.526;2022-10-16T11:09:28;5.45;;;0.40;;
33864;SDS011;20159;51.072;13.526;2022-10-16T11:12:00;0.50;;;0.30;;
33864;SDS011;20159;51.072;13.526;2022-10-16T11:14:58;0.20;;;0.20;;
33864;SDS011;20159;51.072;13.526;2022-10-16T11:17:30;0.30;;;0.20;;
33864;SDS011;20159;51.072;13.526;2022-10-16T11:20:02;1.13;;;0.30;;
33864;SDS011;20159;51.072;13.526;2022-10-16T11:27:50;1.77;;;0.45;;
33864;SDS011;20159;51.072;13.526;2022-10-16T11:30:28;0.68;;;0.28;;
33864;SDS011;20159;51.072;13.526;2022-10-16T11:38:07;0.85;;;0.50;;
33864;SDS011;20159;51.072;13.526;2022-10-16T11:40:45;0.95;;;0.40;;
33864;SDS011;20159;51.072;13.526;2022-10-16T11:46:16;1.38;;;0.70;;
33864;SDS011;20159;51.072;13.526;2022-10-16T11:48:47;0.43;;;0.32;;
33864;SDS011;20159;51.072;13.526;2022-10-16T11:51:22;2.08;;;0.50;;
33864;SDS011;20159;51.072;13.526;2022-10-16T11:56:54;0.60;;;0.20;;
33864;SDS011;20159;51.072;13.526;2022-10-16T12:04:42;0.73;;;0.20;;
33864;SDS011;20159;51.072;13.526;2022-10-16T12:07:13;2.53;;;0.50;;
33864;SDS011;20159;51.072;13.526;2022-10-16T12:09:43;0.50;;;0.30;;
33864;SDS011;20159;51.072;13.526;2022-10-16T12:12:25;1.27;;;0.40;;
33864;SDS011;20159;51.072;13.526;2022-10-16T12:15:18;0.70;;;0.20;;
33864;SDS011;20159;51.072;13.526;2022-10-16T12:17:47;1.37;;;0.47;;
33864;SDS011;20159;51.072;13.526;2022-10-16T12:22:48;2.35;;;0.38;;
33864;SDS011;20159;51.072;13.526;2022-10-16T12:25:24;0.73;;;0.45;;
33864;SDS011;20159;51.072;13.526;2022-10-16T12:27:59;0.40;;;0.30;;
33864;SDS011;20159;51.072;13.526;2022-10-16T12:30:27;0.82;;;0.40;;
33864;SDS011;20159;51.072;13.526;2022-10-16T12:32:56;1.20;;;0.30;;
33864;SDS011;20159;51.072;13.526;2022-10-16T12:35:27;1.48;;;0.20;;
33864;SDS011;20159;51.072;13.526;2022-10-16T12:38:04;0.30;;;0.25;;
33864;SDS011;20159;51.072;13.526;2022-10-16T12:40:40;0.50;;;0.35;;
33864;SDS011;20159;51.072;13.526;2022-10-16T12:43:12;1.30;;;0.28;;
33864;SDS011;20159;51.072;13.526;2022-10-16T12:45:58;0.68;;;0.30;;
33864;SDS011;20159;51.072;13.526;2022-10-16T12:48:27;1.00;;;0.30;;
33864;SDS011;20159;51.072;13.526;2022-10-16T12:50:53;0.35;;;0.30;;
33864;SDS011;20159;51.072;13.526;2022-10-16T12:53:27;0.88;;;0.30;;
33864;SDS011;20159;51.072;13.526;2022-10-16T12:56:04;1.20;;;0.30;;
33864;SDS011;20159;51.072;13.526;2022-10-16T13:07:25;0.70;;;0.30;;
33864;SDS011;20159;51.072;13.526;2022-10-16T13:09:52;1.23;;;0.40;;
33864;SDS011;20159;51.072;13.526;2022-10-16T13:12:56;0.80;;;0.40;;
33864;SDS011;20159;51.072;13.526;2022-10-16T13:15:46;0.57;;;0.35;;
33864;SDS011;20159;51.072;13.526;2022-10-16T13:18:32;1.05;;;0.40;;
33864;SDS011;20159;51.072;13.526;2022-10-16T13:21:42;0.80;;;0.40;;
33864;SDS011;20159;51.072;13.526;2022-10-16T13:32:08;0.75;;;0.38;;
33864;SDS011;20159;51.072;13.526;2022-10-16T13:34:45;5.25;;;0.40;;
33864;SDS011;20159;51.072;13.526;2022-10-16T13:37:18;0.73;;;0.40;;
33864;SDS011;20159;51.072;13.526;2022-10-16T13:39:45;0.85;;;0.38;;
33864;SDS011;20159;51.072;13.526;2022-10-16T13:42:17;2.58;;;0.40;;
33864;SDS011;20159;51.072;13.526;2022-10-16T13:44:53;0.30;;;0.28;;
33864;SDS011;20159;51.072;13.526;2022-10-16T13:47:24;1.42;;;0.30;;
33864;SDS011;20159;51.072;13.526;2022-10-16T13:50:05;0.65;;;0.40;;
33864;SDS011;20159;51.072;13.526;2022-10-16T13:52:36;0.70;;;0.47;;
33864;SDS011;20159;51.072;13.526;2022-10-16T13:55:03;0.77;;;0.40;;
33864;SDS011;20159;51.072;13.526;2022-10-16T13:57:29;1.35;;;0.32;;
33864;SDS011;20159;51.072;13.526;2022-10-16T13:59:55;0.80;;;0.50;;
33864;SDS011;20159;51.072;13.526;2022-10-16T14:02:29;0.38;;;0.30;;
33864;SDS011;20159;51.072;13.526;2022-10-16T14:04:59;0.50;;;0.35;;
33864;SDS011;20159;51.072;13.526;2022-10-16T14:07:28;1.65;;;0.30;;
33864;SDS011;20159;51.072;13.526;2022-10-16T14:09:59;1.42;;;0.38;;
33864;SDS011;20159;51.072;13.526;2022-10-16T14:12:28;1.50;;;0.40;;
33864;SDS011;20159;51.072;13.526;2022-10-16T14:14:54;0.63;;;0.30;;
33864;SDS011;20159;51.072;13.526;2022-10-16T14:17:23;1.42;;;0.30;;
33864;SDS011;20159;51.072;13.526;2022-10-16T14:19:54;1.27;;;0.35;;
33864;SDS011;20159;51.072;13.526;2022-10-16T14:24:56;0.60;;;0.38;;
33864;SDS011;20159;51.072;13.526;2022-10-16T14:27:27;0.80;;;0.45;;
33864;SDS011;20159;51.072;13.526;2022-10-16T14:30:12;0.60;;;0.30;;
33864;SDS011;20159;51.072;13.526;2022-10-16T14:32:57;0.45;;;0.30;;
33864;SDS011;20159;51.072;13.526;2022-10-16T14:35:25;0.52;;;0.30;;
33864;SDS011;20159;51.072;13.526;2022-10-16T14:37:53;0.63;;;0.43;;
33864;SDS011;20159;51.072;13.526;2022-10-16T14:40:21;0.90;;;0.45;;
33864;SDS011;20159;51.072;13.526;2022-10-16T14:42:49;0.65;;;0.43;;
33864;SDS011;20159;51.072;13.526;2022-10-16T14:45:18;1.10;;;0.47;;
33864;SDS011;20159;51.072;13.526;2022-10-16T14:47:47;1.88;;;0.35;;
33864;SDS011;20159;51.072;13.526;2022-10-16T14:50:19;1.27;;;0.60;;
33864;SDS011;20159;51.072;13.526;2022-10-16T14:52:45;1.50;;;0.40;;
33864;SDS011;20159;51.072;13.526;2022-10-16T14:55:10;0.93;;;0.40;;
33864;SDS011;20159;51.072;13.526;2022-10-16T14:57:36;0.77;;;0.40;;
33864;SDS011;20159;51.072;13.526;2022-10-16T15:00:04;1.08;;;0.40;;
33864;SDS011;20159;51.072;13.526;2022-10-16T15:02:45;0.82;;;0.30;;
33864;SDS011;20159;51.072;13.526;2022-10-16T15:05:13;0.57;;;0.30;;
33864;SDS011;20159;51.072;13.526;2022-10-16T15:07:50;0.77;;;0.40;;
33864;SDS011;20159;51.072;13.526;2022-10-16T15:10:16;1.05;;;0.40;;
33864;SDS011;20159;51.072;13.526;2022-10-16T15:12:43;0.80;;;0.50;;
33864;SDS011;20159;51.072;13.526;2022-10-16T15:17:50;0.85;;;0.50;;
33864;SDS011;20159;51.072;13.526;2022-10-16T15:20:21;0.95;;;0.40;;
33864;SDS011;20159;51.072;13.526;2022-10-16T15:22:48;0.65;;;0.40;;
33864;SDS011;20159;51.072;13.526;2022-10-16T15:25:20;2.70;;;0.40;;
33864;SDS011;20159;51.072;13.526;2022-10-16T15:27:53;0.55;;;0.38;;
33864;SDS011;20159;51.072;13.526;2022-10-16T15:30:19;0.60;;;0.40;;
33864;SDS011;20159;51.072;13.526;2022-10-16T15:32:45;0.68;;;0.32;;
33864;SDS011;20159;51.072;13.526;2022-10-16T15:35:10;0.45;;;0.35;;
33864;SDS011;20159;51.072;13.526;2022-10-16T15:37:36;0.70;;;0.30;;
33864;SDS011;20159;51.072;13.526;2022-10-16T15:40:01;0.52;;;0.30;;
33864;SDS011;20159;51.072;13.526;2022-10-16T15:42:27;0.85;;;0.32;;
33864;SDS011;20159;51.072;13.526;2022-10-16T15:44:53;0.82;;;0.40;;
33864;SDS011;20159;51.072;13.526;2022-10-16T15:47:18;1.00;;;0.40;;
33864;SDS011;20159;51.072;13.526;2022-10-16T15:49:44;0.77;;;0.40;;
33864;SDS011;20159;51.072;13.526;2022-10-16T15:52:10;0.93;;;0.30;;
33864;SDS011;20159;51.072;13.526;2022-10-16T15:54:36;0.70;;;0.30;;
33864;SDS011;20159;51.072;13.526;2022-10-16T15:57:02;0.73;;;0.38;;
33864;SDS011;20159;51.072;13.526;2022-10-16T15:59:27;0.60;;;0.40;;
33864;SDS011;20159;51.072;13.526;2022-10-16T16:01:53;1.52;;;0.50;;
33864;SDS011;20159;51.072;13.526;2022-10-16T16:04:18;0.82;;;0.30;;
33864;SDS011;20159;51.072;13.526;2022-10-16T16:06:44;0.55;;;0.43;;
33864;SDS011;20159;51.072;13.526;2022-10-16T16:09:11;1.58;;;0.52;;
33864;SDS011;20159;51.072;13.526;2022-10-16T16:11:37;1.40;;;0.60;;
33864;SDS011;20159;51.072;13.526;2022-10-16T16:14:04;0.73;;;0.28;;
33864;SDS011;20159;51.072;13.526;2022-10-16T16:16:30;0.75;;;0.50;;
33864;SDS011;20159;51.072;13.526;2022-10-16T16:19:01;1.58;;;0.60;;
33864;SDS011;20159;51.072;13.526;2022-10-16T16:21:27;0.82;;;0.43;;
33864;SDS011;20159;51.072;13.526;2022-10-16T16:23:53;1.17;;;0.70;;
33864;SDS011;20159;51.072;13.526;2022-10-16T16:28:52;1.00;;;0.70;;
33864;SDS011;20159;51.072;13.526;2022-10-16T16:31:19;0.90;;;0.70;;
33864;SDS011;20159;51.072;13.526;2022-10-16T16:33:48;3.10;;;0.60;;
33864;SDS011;20159;51.072;13.526;2022-10-16T16:36:13;1.58;;;0.70;;